Main page
METAR-TAF:

METAR-TAF

Airports :

Beijing Capital International Airport

Beijing, China

latitude: 39-56N, longitude: 116-17E, elevation: 55 m

Current weather observation

The report was made 32 minutes ago, at 12:30 UTC
Wind 6 kt from the South/Southwest, varying between South/Southeast and West/Southwest
Temperature 30°C
Humidity 66%
Pressure 1000 hPa
Visibility 10 km or more
no clouds below 1500 m and no cumulonimbus

METAR: ZBAA 201230Z 20003MPS 160V250 CAVOK 30/23 Q1000 NOSIG

Time: 21:02 (13:02 UTC)

Forecast

The report was made 3 hours and 32 minutes ago, at 09:30 UTC
Forecast valid from 20 at 12 UTC to 21 at 12 UTC
Wind 8 kt from the South
Visibility 10 km or more
no clouds below 1500 m and no cumulonimbus

TAF: ZBAA 200930Z 2012/2112 19004MPS CAVOK TX33/2107Z TN22/2021Z

Weather observations and forecasts of more than 4000 airports (METAR and TAF reports).

The available stations are represented by yellow and red dots on the map.

Hover mouse over dot to see the name of the station.

Then click to see weather observations and forecasts.

To change the map : click on the green buttons with a black cross to zoom in, on the green button with a dash to zoom out, or on the green arrows for adjacent maps.


METAR-TAF: